sensor_id;sensor_type;location;lat;lon;timestamp;temperature;humidity
28773;DHT22;15925;51.222;5.678;2023-06-10T00:01:53;23.40;94.20
28773;DHT22;15925;51.222;5.678;2023-06-10T00:04:23;23.40;94.30
28773;DHT22;15925;51.222;5.678;2023-06-10T00:06:49;23.30;94.30
28773;DHT22;15925;51.222;5.678;2023-06-10T00:09:16;23.30;94.40
28773;DHT22;15925;51.222;5.678;2023-06-10T00:11:42;23.20;95.70
28773;DHT22;15925;51.222;5.678;2023-06-10T00:14:08;23.20;94.50
28773;DHT22;15925;51.222;5.678;2023-06-10T00:16:34;23.10;94.70
28773;DHT22;15925;51.222;5.678;2023-06-10T00:19:00;23.10;94.80
28773;DHT22;15925;51.222;5.678;2023-06-10T00:21:31;23.10;94.90
28773;DHT22;15925;51.222;5.678;2023-06-10T00:24:07;23.00;94.90
28773;DHT22;15925;51.222;5.678;2023-06-10T00:26:40;23.00;95.10
28773;DHT22;15925;51.222;5.678;2023-06-10T00:29:07;23.00;95.10
28773;DHT22;15925;51.222;5.678;2023-06-10T00:31:34;22.90;95.20
28773;DHT22;15925;51.222;5.678;2023-06-10T00:34:00;22.90;95.40
28773;DHT22;15925;51.222;5.678;2023-06-10T00:36:26;22.80;96.50
28773;DHT22;15925;51.222;5.678;2023-06-10T00:38:52;22.80;95.30
28773;DHT22;15925;51.222;5.678;2023-06-10T00:41:18;22.80;95.50
28773;DHT22;15925;51.222;5.678;2023-06-10T00:43:44;22.70;95.50
28773;DHT22;15925;51.222;5.678;2023-06-10T00:46:11;22.70;95.60
28773;DHT22;15925;51.222;5.678;2023-06-10T00:48:38;22.70;95.70
28773;DHT22;15925;51.222;5.678;2023-06-10T00:51:05;22.60;95.70
28773;DHT22;15925;51.222;5.678;2023-06-10T00:53:31;22.60;95.90
28773;DHT22;15925;51.222;5.678;2023-06-10T00:55:58;22.50;97.00
28773;DHT22;15925;51.222;5.678;2023-06-10T00:58:24;22.40;95.80
28773;DHT22;15925;51.222;5.678;2023-06-10T01:00:51;22.40;95.90
28773;DHT22;15925;51.222;5.678;2023-06-10T01:03:17;22.40;95.90
28773;DHT22;15925;51.222;5.678;2023-06-10T01:05:45;22.30;96.30
28773;DHT22;15925;51.222;5.678;2023-06-10T01:08:35;22.20;96.10
28773;DHT22;15925;51.222;5.678;2023-06-10T01:11:08;22.00;96.30
28773;DHT22;15925;51.222;5.678;2023-06-10T01:13:38;21.90;96.40
28773;DHT22;15925;51.222;5.678;2023-06-10T01:16:07;21.90;96.40
28773;DHT22;15925;51.222;5.678;2023-06-10T01:18:34;22.00;96.50
28773;DHT22;15925;51.222;5.678;2023-06-10T01:20:59;21.90;96.50
28773;DHT22;15925;51.222;5.678;2023-06-10T01:23:25;21.90;96.70
28773;DHT22;15925;51.222;5.678;2023-06-10T01:28:25;21.90;96.80
28773;DHT22;15925;51.222;5.678;2023-06-10T01:30:59;21.90;96.70
28773;DHT22;15925;51.222;5.678;2023-06-10T01:33:31;21.80;96.80
28773;DHT22;15925;51.222;5.678;2023-06-10T01:36:00;21.70;96.80
28773;DHT22;15925;51.222;5.678;2023-06-10T01:38:30;21.80;96.90
28773;DHT22;15925;51.222;5.678;2023-06-10T01:40:58;21.80;96.90
28773;DHT22;15925;51.222;5.678;2023-06-10T01:43:25;21.70;97.00
28773;DHT22;15925;51.222;5.678;2023-06-10T01:45:50;21.70;97.00
28773;DHT22;15925;51.222;5.678;2023-06-10T01:48:16;21.70;97.10
28773;DHT22;15925;51.222;5.678;2023-06-10T01:50:42;21.60;97.10
28773;DHT22;15925;51.222;5.678;2023-06-10T01:53:09;21.70;97.10
28773;DHT22;15925;51.222;5.678;2023-06-10T01:55:35;21.60;97.20
28773;DHT22;15925;51.222;5.678;2023-06-10T01:58:01;21.60;97.20
28773;DHT22;15925;51.222;5.678;2023-06-10T02:00:27;21.60;97.30
28773;DHT22;15925;51.222;5.678;2023-06-10T02:02:52;21.60;97.40
28773;DHT22;15925;51.222;5.678;2023-06-10T02:05:18;21.50;97.40
28773;DHT22;15925;51.222;5.678;2023-06-10T02:07:44;21.50;97.50
28773;DHT22;15925;51.222;5.678;2023-06-10T02:10:10;21.50;97.50
28773;DHT22;15925;51.222;5.678;2023-06-10T02:12:36;21.50;97.50
28773;DHT22;15925;51.222;5.678;2023-06-10T02:15:02;21.20;97.50
28773;DHT22;15925;51.222;5.678;2023-06-10T02:17:29;21.20;97.60
28773;DHT22;15925;51.222;5.678;2023-06-10T02:19:55;21.10;97.60
28773;DHT22;15925;51.222;5.678;2023-06-10T02:22:23;21.20;97.70
28773;DHT22;15925;51.222;5.678;2023-06-10T02:24:49;21.10;97.70
28773;DHT22;15925;51.222;5.678;2023-06-10T02:27:16;21.10;97.70
28773;DHT22;15925;51.222;5.678;2023-06-10T02:29:42;21.10;97.80
28773;DHT22;15925;51.222;5.678;2023-06-10T02:32:10;21.00;97.80
28773;DHT22;15925;51.222;5.678;2023-06-10T02:34:36;21.10;97.90
28773;DHT22;15925;51.222;5.678;2023-06-10T02:37:03;20.90;97.90
28773;DHT22;15925;51.222;5.678;2023-06-10T02:39:29;20.90;98.00
28773;DHT22;15925;51.222;5.678;2023-06-10T02:41:56;20.80;98.00
28773;DHT22;15925;51.222;5.678;2023-06-10T02:44:21;20.90;98.90
28773;DHT22;15925;51.222;5.678;2023-06-10T02:46:48;20.80;98.20
28773;DHT22;15925;51.222;5.678;2023-06-10T02:49:14;20.80;98.20
28773;DHT22;15925;51.222;5.678;2023-06-10T02:51:40;20.60;98.30
28773;DHT22;15925;51.222;5.678;2023-06-10T02:54:07;20.60;98.40
28773;DHT22;15925;51.222;5.678;2023-06-10T02:56:33;20.60;98.40
28773;DHT22;15925;51.222;5.678;2023-06-10T02:59:01;20.50;98.50
28773;DHT22;15925;51.222;5.678;2023-06-10T03:01:29;20.60;98.60
28773;DHT22;15925;51.222;5.678;2023-06-10T03:04:07;20.50;98.60
28773;DHT22;15925;51.222;5.678;2023-06-10T03:06:34;20.50;98.70
28773;DHT22;15925;51.222;5.678;2023-06-10T03:09:16;20.60;98.70
28773;DHT22;15925;51.222;5.678;2023-06-10T03:11:44;20.50;98.70
28773;DHT22;15925;51.222;5.678;2023-06-10T03:14:11;20.60;98.80
28773;DHT22;15925;51.222;5.678;2023-06-10T03:16:36;20.50;98.90
28773;DHT22;15925;51.222;5.678;2023-06-10T03:19:06;20.50;98.90
28773;DHT22;15925;51.222;5.678;2023-06-10T03:21:34;20.50;98.90
28773;DHT22;15925;51.222;5.678;2023-06-10T03:24:00;20.40;98.90
28773;DHT22;15925;51.222;5.678;2023-06-10T03:26:27;20.40;99.00
28773;DHT22;15925;51.222;5.678;2023-06-10T03:28:54;20.40;99.90
28773;DHT22;15925;51.222;5.678;2023-06-10T03:31:22;20.50;99.10
28773;DHT22;15925;51.222;5.678;2023-06-10T03:33:51;20.50;99.20
28773;DHT22;15925;51.222;5.678;2023-06-10T03:36:17;20.40;99.10
28773;DHT22;15925;51.222;5.678;2023-06-10T03:38:43;20.40;99.10
28773;DHT22;15925;51.222;5.678;2023-06-10T03:41:09;20.20;99.20
28773;DHT22;15925;51.222;5.678;2023-06-10T03:43:37;20.20;99.30
28773;DHT22;15925;51.222;5.678;2023-06-10T03:46:04;20.30;99.30
28773;DHT22;15925;51.222;5.678;2023-06-10T03:48:31;20.20;99.30
28773;DHT22;15925;51.222;5.678;2023-06-10T03:50:58;20.20;99.40
28773;DHT22;15925;51.222;5.678;2023-06-10T03:53:24;20.20;99.50
28773;DHT22;15925;51.222;5.678;2023-06-10T03:55:50;20.10;99.50
28773;DHT22;15925;51.222;5.678;2023-06-10T03:58:19;20.20;99.60
28773;DHT22;15925;51.222;5.678;2023-06-10T04:00:45;20.20;99.60
28773;DHT22;15925;51.222;5.678;2023-06-10T04:03:12;20.20;99.70
28773;DHT22;15925;51.222;5.678;2023-06-10T04:05:43;20.20;99.80
28773;DHT22;15925;51.222;5.678;2023-06-10T04:08:09;20.20;99.80
28773;DHT22;15925;51.222;5.678;2023-06-10T04:10:35;20.10;99.90
28773;DHT22;15925;51.222;5.678;2023-06-10T04:13:01;20.10;99.90
28773;DHT22;15925;51.222;5.678;2023-06-10T04:15:32;20.10;99.90
28773;DHT22;15925;51.222;5.678;2023-06-10T04:18:00;20.10;99.90
28773;DHT22;15925;51.222;5.678;2023-06-10T04:20:27;20.10;99.90
28773;DHT22;15925;51.222;5.678;2023-06-10T04:22:52;20.10;99.90
28773;DHT22;15925;51.222;5.678;2023-06-10T04:25:19;20.00;99.90
28773;DHT22;15925;51.222;5.678;2023-06-10T04:27:47;19.90;99.90
28773;DHT22;15925;51.222;5.678;2023-06-10T04:30:13;19.80;99.90
28773;DHT22;15925;51.222;5.678;2023-06-10T04:32:40;19.80;99.90
28773;DHT22;15925;51.222;5.678;2023-06-10T04:35:14;19.80;99.90
28773;DHT22;15925;51.222;5.678;2023-06-10T04:37:41;19.60;99.90
28773;DHT22;15925;51.222;5.678;2023-06-10T04:40:09;19.60;99.90
28773;DHT22;15925;51.222;5.678;2023-06-10T04:42:35;19.60;99.90
28773;DHT22;15925;51.222;5.678;2023-06-10T04:45:02;19.60;99.90
28773;DHT22;15925;51.222;5.678;2023-06-10T04:47:29;19.60;99.90
28773;DHT22;15925;51.222;5.678;2023-06-10T04:49:59;19.60;99.90
28773;DHT22;15925;51.222;5.678;2023-06-10T04:52:25;19.60;99.90
28773;DHT22;15925;51.222;5.678;2023-06-10T04:54:52;19.60;99.90
28773;DHT22;15925;51.222;5.678;2023-06-10T04:57:18;19.60;99.90
28773;DHT22;15925;51.222;5.678;2023-06-10T04:59:43;19.60;99.90
28773;DHT22;15925;51.222;5.678;2023-06-10T05:02:09;19.60;99.90
28773;DHT22;15925;51.222;5.678;2023-06-10T05:04:36;19.60;99.90
28773;DHT22;15925;51.222;5.678;2023-06-10T05:07:01;19.60;99.90
28773;DHT22;15925;51.222;5.678;2023-06-10T05:09:27;19.60;99.90
28773;DHT22;15925;51.222;5.678;2023-06-10T05:11:53;19.70;99.90
28773;DHT22;15925;51.222;5.678;2023-06-10T05:14:19;19.60;99.90
28773;DHT22;15925;51.222;5.678;2023-06-10T05:16:47;19.70;99.90
28773;DHT22;15925;51.222;5.678;2023-06-10T05:19:12;19.60;99.90
28773;DHT22;15925;51.222;5.678;2023-06-10T05:21:38;19.70;99.90
28773;DHT22;15925;51.222;5.678;2023-06-10T05:24:04;19.70;99.90
28773;DHT22;15925;51.222;5.678;2023-06-10T05:26:30;19.70;99.90
28773;DHT22;15925;51.222;5.678;2023-06-10T05:28:57;19.70;99.90
28773;DHT22;15925;51.222;5.678;2023-06-10T05:31:24;19.80;99.90
28773;DHT22;15925;51.222;5.678;2023-06-10T05:33:50;19.80;99.90
28773;DHT22;15925;51.222;5.678;2023-06-10T05:36:15;19.90;99.90
28773;DHT22;15925;51.222;5.678;2023-06-10T05:38:41;20.00;99.90
28773;DHT22;15925;51.222;5.678;2023-06-10T05:41:07;20.00;99.90
28773;DHT22;15925;51.222;5.678;2023-06-10T05:43:33;20.00;99.90
28773;DHT22;15925;51.222;5.678;2023-06-10T05:45:58;20.00;99.90
28773;DHT22;15925;51.222;5.678;2023-06-10T05:48:24;20.10;99.90
28773;DHT22;15925;51.222;5.678;2023-06-10T05:50:50;20.10;99.90
28773;DHT22;15925;51.222;5.678;2023-06-10T05:53:16;20.20;99.90
28773;DHT22;15925;51.222;5.678;2023-06-10T05:55:42;20.20;99.90
28773;DHT22;15925;51.222;5.678;2023-06-10T05:58:09;20.20;99.90
28773;DHT22;15925;51.222;5.678;2023-06-10T06:00:35;20.30;99.90
28773;DHT22;15925;51.222;5.678;2023-06-10T06:03:01;20.30;99.90
28773;DHT22;15925;51.222;5.678;2023-06-10T06:05:26;20.40;99.90
28773;DHT22;15925;51.222;5.678;2023-06-10T06:07:52;20.40;99.90
28773;DHT22;15925;51.222;5.678;2023-06-10T06:10:18;20.50;99.90
28773;DHT22;15925;51.222;5.678;2023-06-10T06:12:44;20.50;99.90
28773;DHT22;15925;51.222;5.678;2023-06-10T06:15:11;20.60;99.90
28773;DHT22;15925;51.222;5.678;2023-06-10T06:17:36;20.70;99.90
28773;DHT22;15925;51.222;5.678;2023-06-10T06:20:03;20.70;99.90
28773;DHT22;15925;51.222;5.678;2023-06-10T06:22:29;20.80;99.90
28773;DHT22;15925;51.222;5.678;2023-06-10T06:24:55;20.80;99.90
28773;DHT22;15925;51.222;5.678;2023-06-10T06:27:21;20.90;99.90
28773;DHT22;15925;51.222;5.678;2023-06-10T06:29:47;21.00;99.90
28773;DHT22;15925;51.222;5.678;2023-06-10T06:32:13;21.00;99.90
28773;DHT22;15925;51.222;5.678;2023-06-10T06:34:38;21.20;99.90
28773;DHT22;15925;51.222;5.678;2023-06-10T06:37:04;21.30;99.90
28773;DHT22;15925;51.222;5.678;2023-06-10T06:39:33;21.30;99.90
28773;DHT22;15925;51.222;5.678;2023-06-10T06:41:58;21.40;99.90
28773;DHT22;15925;51.222;5.678;2023-06-10T06:44:42;21.50;99.90
28773;DHT22;15925;51.222;5.678;2023-06-10T06:47:07;21.60;99.90
28773;DHT22;15925;51.222;5.678;2023-06-10T06:49:33;21.70;99.90
28773;DHT22;15925;51.222;5.678;2023-06-10T06:51:59;21.80;99.90
28773;DHT22;15925;51.222;5.678;2023-06-10T06:54:25;21.90;99.90
28773;DHT22;15925;51.222;5.678;2023-06-10T06:56:51;21.90;99.90
28773;DHT22;15925;51.222;5.678;2023-06-10T06:59:16;22.00;99.90
28773;DHT22;15925;51.222;5.678;2023-06-10T07:01:45;22.10;99.90
28773;DHT22;15925;51.222;5.678;2023-06-10T07:04:11;22.20;99.90
28773;DHT22;15925;51.222;5.678;2023-06-10T07:06:37;22.30;99.90
28773;DHT22;15925;51.222;5.678;2023-06-10T07:09:04;22.40;99.90
28773;DHT22;15925;51.222;5.678;2023-06-10T07:11:30;22.50;99.90
28773;DHT22;15925;51.222;5.678;2023-06-10T07:13:56;22.50;99.90
28773;DHT22;15925;51.222;5.678;2023-06-10T07:16:22;22.60;99.90
28773;DHT22;15925;51.222;5.678;2023-06-10T07:18:48;22.60;99.90
28773;DHT22;15925;51.222;5.678;2023-06-10T07:21:14;22.80;99.90
28773;DHT22;15925;51.222;5.678;2023-06-10T07:23:43;22.90;99.90
28773;DHT22;15925;51.222;5.678;2023-06-10T07:26:08;23.00;99.90
28773;DHT22;15925;51.222;5.678;2023-06-10T07:28:43;23.00;99.90
28773;DHT22;15925;51.222;5.678;2023-06-10T07:31:08;23.10;99.90
28773;DHT22;15925;51.222;5.678;2023-06-10T07:33:34;23.20;99.90
28773;DHT22;15925;51.222;5.678;2023-06-10T07:36:00;23.30;99.90
28773;DHT22;15925;51.222;5.678;2023-06-10T07:38:26;23.40;99.90
28773;DHT22;15925;51.222;5.678;2023-06-10T07:40:52;23.50;99.90
28773;DHT22;15925;51.222;5.678;2023-06-10T07:43:18;23.60;99.90
28773;DHT22;15925;51.222;5.678;2023-06-10T07:45:44;23.80;99.90
28773;DHT22;15925;51.222;5.678;2023-06-10T07:48:10;23.90;99.90
28773;DHT22;15925;51.222;5.678;2023-06-10T07:50:36;23.90;99.90
28773;DHT22;15925;51.222;5.678;2023-06-10T07:53:02;24.00;99.90
28773;DHT22;15925;51.222;5.678;2023-06-10T07:55:29;24.10;99.90
28773;DHT22;15925;51.222;5.678;2023-06-10T07:57:55;24.20;99.90
28773;DHT22;15925;51.222;5.678;2023-06-10T08:00:21;24.30;99.90
28773;DHT22;15925;51.222;5.678;2023-06-10T08:02:47;24.30;99.90
28773;DHT22;15925;51.222;5.678;2023-06-10T08:05:13;24.50;99.90
28773;DHT22;15925;51.222;5.678;2023-06-10T08:07:42;24.50;99.90
28773;DHT22;15925;51.222;5.678;2023-06-10T08:10:09;24.60;99.90
28773;DHT22;15925;51.222;5.678;2023-06-10T08:12:35;24.80;99.90
28773;DHT22;15925;51.222;5.678;2023-06-10T08:15:01;24.70;99.60
28773;DHT22;15925;51.222;5.678;2023-06-10T08:17:32;24.80;99.60
28773;DHT22;15925;51.222;5.678;2023-06-10T08:19:58;24.90;99.50
28773;DHT22;15925;51.222;5.678;2023-06-10T08:22:23;24.90;99.30
28773;DHT22;15925;51.222;5.678;2023-06-10T08:24:49;24.90;99.20
28773;DHT22;15925;51.222;5.678;2023-06-10T08:27:15;25.00;99.30
28773;DHT22;15925;51.222;5.678;2023-06-10T08:29:43;25.20;99.00
28773;DHT22;15925;51.222;5.678;2023-06-10T08:32:09;25.20;98.80
28773;DHT22;15925;51.222;5.678;2023-06-10T08:34:35;25.40;98.90
28773;DHT22;15925;51.222;5.678;2023-06-10T08:37:01;25.40;98.80
28773;DHT22;15925;51.222;5.678;2023-06-10T08:39:27;25.50;98.70
28773;DHT22;15925;51.222;5.678;2023-06-10T08:44:36;25.70;98.20
28773;DHT22;15925;51.222;5.678;2023-06-10T08:47:14;25.90;98.40
28773;DHT22;15925;51.222;5.678;2023-06-10T08:49:45;25.90;98.20
28773;DHT22;15925;51.222;5.678;2023-06-10T08:52:20;26.00;98.30
28773;DHT22;15925;51.222;5.678;2023-06-10T08:54:57;26.20;98.20
28773;DHT22;15925;51.222;5.678;2023-06-10T08:57:25;26.20;98.20
28773;DHT22;15925;51.222;5.678;2023-06-10T08:59:53;26.40;98.10
28773;DHT22;15925;51.222;5.678;2023-06-10T09:02:20;26.40;98.00
28773;DHT22;15925;51.222;5.678;2023-06-10T09:04:49;26.50;98.00
28773;DHT22;15925;51.222;5.678;2023-06-10T09:07:16;26.50;97.90
28773;DHT22;15925;51.222;5.678;2023-06-10T09:09:43;26.50;97.80
28773;DHT22;15925;51.222;5.678;2023-06-10T09:12:11;26.50;97.80
28773;DHT22;15925;51.222;5.678;2023-06-10T09:14:39;26.50;97.70
28773;DHT22;15925;51.222;5.678;2023-06-10T09:17:06;26.50;97.70
28773;DHT22;15925;51.222;5.678;2023-06-10T09:19:33;26.60;97.60
28773;DHT22;15925;51.222;5.678;2023-06-10T09:21:59;26.60;97.40
28773;DHT22;15925;51.222;5.678;2023-06-10T09:24:25;26.60;97.50
28773;DHT22;15925;51.222;5.678;2023-06-10T09:27:06;26.70;97.40
28773;DHT22;15925;51.222;5.678;2023-06-10T09:29:52;26.60;96.70
28773;DHT22;15925;51.222;5.678;2023-06-10T09:32:18;26.70;96.40
28773;DHT22;15925;51.222;5.678;2023-06-10T09:34:45;26.70;96.70
28773;DHT22;15925;51.222;5.678;2023-06-10T09:37:11;26.90;96.70
28773;DHT22;15925;51.222;5.678;2023-06-10T09:39:39;26.90;96.50
28773;DHT22;15925;51.222;5.678;2023-06-10T09:42:18;27.10;96.50
28773;DHT22;15925;51.222;5.678;2023-06-10T09:44:51;27.20;95.70
28773;DHT22;15925;51.222;5.678;2023-06-10T09:47:23;27.30;96.30
28773;DHT22;15925;51.222;5.678;2023-06-10T09:49:52;27.20;95.80
28773;DHT22;15925;51.222;5.678;2023-06-10T09:52:24;27.20;95.80
28773;DHT22;15925;51.222;5.678;2023-06-10T09:54:51;27.20;95.60
28773;DHT22;15925;51.222;5.678;2023-06-10T09:57:19;27.30;95.60
28773;DHT22;15925;51.222;5.678;2023-06-10T09:59:45;27.50;95.60
28773;DHT22;15925;51.222;5.678;2023-06-10T10:02:18;27.60;95.30
28773;DHT22;15925;51.222;5.678;2023-06-10T10:04:44;27.70;95.20
28773;DHT22;15925;51.222;5.678;2023-06-10T10:07:10;27.80;95.10
28773;DHT22;15925;51.222;5.678;2023-06-10T10:09:37;27.90;94.90
28773;DHT22;15925;51.222;5.678;2023-06-10T10:12:11;27.90;94.80
28773;DHT22;15925;51.222;5.678;2023-06-10T10:14:38;28.10;94.80
28773;DHT22;15925;51.222;5.678;2023-06-10T10:17:08;28.30;94.80
28773;DHT22;15925;51.222;5.678;2023-06-10T10:19:40;28.30;94.20
28773;DHT22;15925;51.222;5.678;2023-06-10T10:22:13;28.30;94.30
28773;DHT22;15925;51.222;5.678;2023-06-10T10:24:55;28.40;94.10
28773;DHT22;15925;51.222;5.678;2023-06-10T10:27:48;28.40;93.70
28773;DHT22;15925;51.222;5.678;2023-06-10T10:30:17;28.60;93.50
28773;DHT22;15925;51.222;5.678;2023-06-10T10:35:17;28.80;93.60
28773;DHT22;15925;51.222;5.678;2023-06-10T10:38:25;28.80;93.00
28773;DHT22;15925;51.222;5.678;2023-06-10T10:40:51;28.90;93.10
28773;DHT22;15925;51.222;5.678;2023-06-10T10:43:18;29.10;93.50
28773;DHT22;15925;51.222;5.678;2023-06-10T10:46:00;29.30;93.10
28773;DHT22;15925;51.222;5.678;2023-06-10T10:48:32;29.20;92.60
28773;DHT22;15925;51.222;5.678;2023-06-10T10:50:59;29.20;92.90
28773;DHT22;15925;51.222;5.678;2023-06-10T10:53:24;29.40;92.90
28773;DHT22;15925;51.222;5.678;2023-06-10T10:58:32;29.30;92.30
28773;DHT22;15925;51.222;5.678;2023-06-10T11:00:58;29.50;92.50
28773;DHT22;15925;51.222;5.678;2023-06-10T11:03:28;29.50;92.30
28773;DHT22;15925;51.222;5.678;2023-06-10T11:05:57;29.60;92.30
28773;DHT22;15925;51.222;5.678;2023-06-10T11:10:58;29.90;92.10
28773;DHT22;15925;51.222;5.678;2023-06-10T11:13:26;29.90;92.10
28773;DHT22;15925;51.222;5.678;2023-06-10T11:15:52;29.90;92.20
28773;DHT22;15925;51.222;5.678;2023-06-10T11:18:23;29.90;91.60
28773;DHT22;15925;51.222;5.678;2023-06-10T11:20:55;30.00;91.20
28773;DHT22;15925;51.222;5.678;2023-06-10T11:26:18;30.20;90.40
28773;DHT22;15925;51.222;5.678;2023-06-10T11:32:03;30.40;90.50
28773;DHT22;15925;51.222;5.678;2023-06-10T11:34:11;30.40;88.40
28773;DHT22;15925;51.222;5.678;2023-06-10T11:36:37;30.50;89.30
28773;DHT22;15925;51.222;5.678;2023-06-10T11:39:06;30.70;80.00
28773;DHT22;15925;51.222;5.678;2023-06-10T11:41:33;30.60;88.20
28773;DHT22;15925;51.222;5.678;2023-06-10T11:44:07;30.70;88.30
28773;DHT22;15925;51.222;5.678;2023-06-10T11:46:33;30.70;87.20
28773;DHT22;15925;51.222;5.678;2023-06-10T11:49:00;30.80;87.20
28773;DHT22;15925;51.222;5.678;2023-06-10T11:51:27;30.90;87.00
28773;DHT22;15925;51.222;5.678;2023-06-10T11:53:54;31.00;86.90
28773;DHT22;15925;51.222;5.678;2023-06-10T11:56:24;31.00;86.40
28773;DHT22;15925;51.222;5.678;2023-06-10T11:59:01;31.00;85.20
28773;DHT22;15925;51.222;5.678;2023-06-10T12:01:32;31.00;84.40
28773;DHT22;15925;51.222;5.678;2023-06-10T12:04:05;31.00;84.80
28773;DHT22;15925;51.222;5.678;2023-06-10T12:09:04;31.20;83.60
28773;DHT22;15925;51.222;5.678;2023-06-10T12:11:30;31.30;84.70
28773;DHT22;15925;51.222;5.678;2023-06-10T12:13:56;31.40;79.70
28773;DHT22;15925;51.222;5.678;2023-06-10T12:16:22;31.40;84.00
28773;DHT22;15925;51.222;5.678;2023-06-10T12:18:48;31.40;83.60
28773;DHT22;15925;51.222;5.678;2023-06-10T12:21:18;31.60;83.70
28773;DHT22;15925;51.222;5.678;2023-06-10T12:24:04;31.50;77.70
28773;DHT22;15925;51.222;5.678;2023-06-10T12:26:41;31.30;79.90
28773;DHT22;15925;51.222;5.678;2023-06-10T12:29:24;31.60;82.10
28773;DHT22;15925;51.222;5.678;2023-06-10T12:34:19;31.50;82.30
28773;DHT22;15925;51.222;5.678;2023-06-10T12:36:49;31.50;81.50
28773;DHT22;15925;51.222;5.678;2023-06-10T12:39:15;31.50;80.20
28773;DHT22;15925;51.222;5.678;2023-06-10T12:41:46;31.50;79.90
28773;DHT22;15925;51.222;5.678;2023-06-10T12:44:12;31.60;79.70
28773;DHT22;15925;51.222;5.678;2023-06-10T12:46:38;31.60;79.30
28773;DHT22;15925;51.222;5.678;2023-06-10T12:49:03;31.70;79.70
28773;DHT22;15925;51.222;5.678;2023-06-10T12:51:32;31.70;79.00
28773;DHT22;15925;51.222;5.678;2023-06-10T12:54:00;31.70;78.70
28773;DHT22;15925;51.222;5.678;2023-06-10T12:56:26;31.70;78.10
28773;DHT22;15925;51.222;5.678;2023-06-10T12:58:52;31.70;77.60
28773;DHT22;15925;51.222;5.678;2023-06-10T13:01:18;31.80;77.90
28773;DHT22;15925;51.222;5.678;2023-06-10T13:03:44;31.90;78.00
28773;DHT22;15925;51.222;5.678;2023-06-10T13:06:10;32.00;77.70
28773;DHT22;15925;51.222;5.678;2023-06-10T13:08:36;31.90;77.20
28773;DHT22;15925;51.222;5.678;2023-06-10T13:11:01;32.00;77.80
28773;DHT22;15925;51.222;5.678;2023-06-10T13:13:27;32.00;77.00
28773;DHT22;15925;51.222;5.678;2023-06-10T13:15:54;32.10;77.10
28773;DHT22;15925;51.222;5.678;2023-06-10T13:18:19;32.20;77.20
28773;DHT22;15925;51.222;5.678;2023-06-10T13:20:45;32.30;77.30
28773;DHT22;15925;51.222;5.678;2023-06-10T13:23:11;32.30;76.90
28773;DHT22;15925;51.222;5.678;2023-06-10T13:25:37;32.40;77.30
28773;DHT22;15925;51.222;5.678;2023-06-10T13:28:02;32.30;74.10
28773;DHT22;15925;51.222;5.678;2023-06-10T13:30:28;32.40;76.80
28773;DHT22;15925;51.222;5.678;2023-06-10T13:32:54;32.40;76.80
28773;DHT22;15925;51.222;5.678;2023-06-10T13:35:20;32.40;73.60
28773;DHT22;15925;51.222;5.678;2023-06-10T13:37:46;32.60;76.60
28773;DHT22;15925;51.222;5.678;2023-06-10T13:40:13;32.50;75.90
28773;DHT22;15925;51.222;5.678;2023-06-10T13:42:40;32.50;76.40
28773;DHT22;15925;51.222;5.678;2023-06-10T13:45:06;32.60;75.90
28773;DHT22;15925;51.222;5.678;2023-06-10T13:47:34;32.60;75.40
28773;DHT22;15925;51.222;5.678;2023-06-10T13:50:00;32.50;74.70
28773;DHT22;15925;51.222;5.678;2023-06-10T13:52:25;32.50;74.50
28773;DHT22;15925;51.222;5.678;2023-06-10T13:54:51;32.60;74.50
28773;DHT22;15925;51.222;5.678;2023-06-10T13:57:17;32.60;74.30
28773;DHT22;15925;51.222;5.678;2023-06-10T13:59:42;32.60;71.40
28773;DHT22;15925;51.222;5.678;2023-06-10T14:02:08;32.60;74.30
28773;DHT22;15925;51.222;5.678;2023-06-10T14:04:34;32.60;72.70
28773;DHT22;15925;51.222;5.678;2023-06-10T14:07:00;32.60;74.30
28773;DHT22;15925;51.222;5.678;2023-06-10T14:09:26;32.60;74.20
28773;DHT22;15925;51.222;5.678;2023-06-10T14:11:52;32.50;74.30
28773;DHT22;15925;51.222;5.678;2023-06-10T14:14:19;32.40;73.90
28773;DHT22;15925;51.222;5.678;2023-06-10T14:16:45;32.40;74.00
28773;DHT22;15925;51.222;5.678;2023-06-10T14:19:11;32.40;73.70
28773;DHT22;15925;51.222;5.678;2023-06-10T14:21:37;32.40;73.10
28773;DHT22;15925;51.222;5.678;2023-06-10T14:24:02;32.30;73.10
28773;DHT22;15925;51.222;5.678;2023-06-10T14:26:28;32.20;72.70
28773;DHT22;15925;51.222;5.678;2023-06-10T14:28:54;32.30;71.70
28773;DHT22;15925;51.222;5.678;2023-06-10T14:31:19;32.40;73.40
28773;DHT22;15925;51.222;5.678;2023-06-10T14:33:47;32.40;72.70
28773;DHT22;15925;51.222;5.678;2023-06-10T14:36:12;32.40;73.00
28773;DHT22;15925;51.222;5.678;2023-06-10T14:38:38;32.40;72.80
28773;DHT22;15925;51.222;5.678;2023-06-10T14:41:04;32.40;72.70
28773;DHT22;15925;51.222;5.678;2023-06-10T14:43:30;32.40;71.80
28773;DHT22;15925;51.222;5.678;2023-06-10T14:45:59;32.40;72.60
28773;DHT22;15925;51.222;5.678;2023-06-10T14:48:25;32.60;73.00
28773;DHT22;15925;51.222;5.678;2023-06-10T14:50:51;32.60;72.50
28773;DHT22;15925;51.222;5.678;2023-06-10T14:53:17;32.60;72.60
28773;DHT22;15925;51.222;5.678;2023-06-10T14:55:44;32.40;70.20
28773;DHT22;15925;51.222;5.678;2023-06-10T14:58:10;32.30;72.60
28773;DHT22;15925;51.222;5.678;2023-06-10T15:00:35;32.20;72.60
28773;DHT22;15925;51.222;5.678;2023-06-10T15:03:01;32.10;72.30
28773;DHT22;15925;51.222;5.678;2023-06-10T15:05:28;32.10;72.70
28773;DHT22;15925;51.222;5.678;2023-06-10T15:07:53;31.90;72.70
28773;DHT22;15925;51.222;5.678;2023-06-10T15:10:19;32.00;72.70
28773;DHT22;15925;51.222;5.678;2023-06-10T15:12:47;31.90;73.00
28773;DHT22;15925;51.222;5.678;2023-06-10T15:15:12;31.80;72.50
28773;DHT22;15925;51.222;5.678;2023-06-10T15:17:40;31.80;71.60
28773;DHT22;15925;51.222;5.678;2023-06-10T15:20:06;31.90;73.10
28773;DHT22;15925;51.222;5.678;2023-06-10T15:22:32;31.90;73.40
28773;DHT22;15925;51.222;5.678;2023-06-10T15:24:58;31.90;73.30
28773;DHT22;15925;51.222;5.678;2023-06-10T15:27:23;31.90;72.80
28773;DHT22;15925;51.222;5.678;2023-06-10T15:29:49;31.80;73.00
28773;DHT22;15925;51.222;5.678;2023-06-10T15:32:15;31.80;72.90
28773;DHT22;15925;51.222;5.678;2023-06-10T15:34:41;31.80;71.90
28773;DHT22;15925;51.222;5.678;2023-06-10T15:37:07;31.80;73.10
28773;DHT22;15925;51.222;5.678;2023-06-10T15:39:32;31.80;72.90
28773;DHT22;15925;51.222;5.678;2023-06-10T15:41:58;31.80;72.80
28773;DHT22;15925;51.222;5.678;2023-06-10T15:44:24;31.70;72.30
28773;DHT22;15925;51.222;5.678;2023-06-10T15:46:50;31.70;72.40
28773;DHT22;15925;51.222;5.678;2023-06-10T15:49:16;31.50;72.50
28773;DHT22;15925;51.222;5.678;2023-06-10T15:51:41;31.70;72.70
28773;DHT22;15925;51.222;5.678;2023-06-10T15:54:09;31.70;73.20
28773;DHT22;15925;51.222;5.678;2023-06-10T15:56:34;31.70;73.10